Time,TemperatureF,DewpointF,PressureIn,WindDirection,WindDirectionDegrees,WindSpeedMPH,WindSpeedGustMPH,Humidity,HourlyPrecipIn,Conditions,Clouds,dailyrainin,SolarRadiationWatts/m^2,SoftwareType,DateUTC
2013-01-29 00:00:00,68.5,65.5,30.25,East,79,0.0,3.0,90,0.00,,---,0.00,0.00,VWS V14.00,2013-01-29 05:00:00,
2013-01-29 00:30:00,68.0,65.0,30.24,East,79,0.0,3.0,90,0.00,,---,0.00,0.00,VWS V14.00,2013-01-29 05:30:00,
2013-01-29 01:00:00,67.4,64.7,30.24,East,79,0.0,0.0,91,0.00,,---,0.00,0.00,VWS V14.00,2013-01-29 06:00:00,
2013-01-29 01:30:00,66.9,64.2,30.23,East,79,0.0,0.0,91,0.00,,---,0.00,0.00,VWS V14.00,2013-01-29 06:30:00,
2013-01-29 02:00:00,66.3,63.6,30.22,East,79,0.0,0.0,91,0.00,,---,0.00,0.00,VWS V14.00,2013-01-29 07:00:00,
2013-01-29 02:30:00,65.9,63.5,30.21,East,79,0.0,1.0,92,0.00,,---,0.00,0.00,VWS V14.00,2013-01-29 07:30:00,
2013-01-29 03:00:00,66.8,64.4,30.21,East,79,0.0,2.0,92,0.00,,---,0.00,0.00,VWS V14.00,2013-01-29 08:00:00,
2013-01-29 03:30:00,66.5,64.1,30.21,East,79,0.0,0.0,92,0.00,,---,0.00,0.00,VWS V14.00,2013-01-29 08:30:00,
2013-01-29 04:00:00,65.5,63.1,30.21,East,79,0.0,0.0,92,0.00,,---,0.00,0.00,VWS V14.00,2013-01-29 09:00:00,
2013-01-29 04:30:00,64.5,62.1,30.21,East,79,0.0,0.0,92,0.00,,---,0.00,0.00,VWS V14.00,2013-01-29 09:30:00,
2013-01-29 05:00:00,63.8,61.4,30.21,East,79,0.0,0.0,92,0.00,,---,0.00,0.00,VWS V14.00,2013-01-29 10:00:00,
2013-01-29 05:30:00,63.7,61.3,30.22,East,79,0.0,0.0,92,0.00,,---,0.00,0.00,VWS V14.00,2013-01-29 10:30:00,
2013-01-29 06:00:00,63.7,61.3,30.22,East,79,0.0,0.0,92,0.00,,---,0.00,0.00,VWS V14.00,2013-01-29 11:00:00,
2013-01-29 06:30:00,63.2,60.8,30.22,East,79,0.0,0.0,92,0.00,,---,0.00,0.00,VWS V14.00,2013-01-29 11:30:00,
2013-01-29 07:00:00,62.7,60.3,30.23,East,79,0.0,0.0,92,0.00,,---,0.00,11.00,VWS V14.00,2013-01-29 12:00:00,
2013-01-29 07:30:00,62.9,60.5,30.24,East,79,0.0,0.0,92,0.00,,---,0.00,67.00,VWS V14.00,2013-01-29 12:30:00,
2013-01-29 08:00:00,64.4,62.0,30.24,East,79,0.0,0.0,92,0.00,,---,0.00,181.00,VWS V14.00,2013-01-29 13:00:00,
2013-01-29 08:30:00,70.1,67.7,30.24,East,79,0.0,2.0,92,0.00,,---,0.00,250.00,VWS V14.00,2013-01-29 13:30:00,
2013-01-29 09:00:00,74.5,70.0,30.24,East,79,2.0,6.0,86,0.00,,---,0.00,149.00,VWS V14.00,2013-01-29 14:00:00,
2013-01-29 09:30:00,74.9,69.7,30.24,East,85,6.0,10.0,84,0.00,,---,0.00,531.00,VWS V14.00,2013-01-29 14:30:00,
2013-01-29 10:00:00,76.0,69.4,30.24,ENE,78,2.0,12.0,80,0.00,,---,0.00,209.00,VWS V14.00,2013-01-29 15:00:00,
2013-01-29 10:30:00,76.2,69.2,30.24,East,98,7.0,13.0,79,0.00,,---,0.00,230.00,VWS V14.00,2013-01-29 15:30:00,
2013-01-29 11:00:00,77.5,70.1,30.23,East,89,6.0,12.0,78,0.00,,---,0.00,724.00,VWS V14.00,2013-01-29 16:00:00,
2013-01-29 11:30:00,76.3,68.9,30.22,ENE,69,3.0,14.0,78,0.00,,---,0.00,313.00,VWS V14.00,2013-01-29 16:30:00,
2013-01-29 12:00:00,76.2,69.2,30.20,East,81,3.0,14.0,79,0.00,,---,0.00,336.00,VWS V14.00,2013-01-29 17:00:00,
2013-01-29 12:30:00,76.0,68.3,30.18,ENE,68,4.0,14.0,77,0.00,,---,0.00,385.00,VWS V14.00,2013-01-29 17:30:00,
2013-01-29 13:00:00,75.0,68.4,30.16,ENE,68,4.0,13.0,80,0.00,,---,0.00,249.00,VWS V14.00,2013-01-29 18:00:00,
2013-01-29 13:30:00,75.3,68.3,30.16,ENE,68,4.0,12.0,79,0.00,,---,0.00,262.00,VWS V14.00,2013-01-29 18:30:00,
2013-01-29 14:00:00,74.1,68.3,30.15,East,90,4.0,17.0,82,0.00,,---,0.00,187.00,VWS V14.00,2013-01-29 19:00:00,
2013-01-29 14:30:00,72.8,68.7,30.15,East,89,0.0,6.0,87,0.00,,---,0.00,125.00,VWS V14.00,2013-01-29 19:30:00,
2013-01-29 15:00:00,71.4,67.3,30.15,East,88,3.0,13.0,87,0.00,,---,0.00,137.00,VWS V14.00,2013-01-29 20:00:00,
2013-01-29 15:30:00,72.0,67.6,30.15,ENE,70,6.0,10.0,86,0.00,,---,0.00,47.00,VWS V14.00,2013-01-29 20:30:00,
2013-01-29 16:00:00,71.6,67.9,30.15,East,98,6.0,11.0,88,0.00,,---,0.00,105.00,VWS V14.00,2013-01-29 21:00:00,
2013-01-29 16:30:00,71.0,67.3,30.16,East,91,9.0,10.0,88,0.00,,---,0.00,63.00,VWS V14.00,2013-01-29 21:30:00,
2013-01-29 17:00:00,70.4,67.0,30.15,ENE,69,2.0,12.0,89,0.00,,---,0.00,40.00,VWS V14.00,2013-01-29 22:00:00,
2013-01-29 17:30:00,70.3,67.2,30.15,ENE,75,4.0,8.0,90,0.00,,---,0.00,7.00,VWS V14.00,2013-01-29 22:30:00,
2013-01-29 18:00:00,70.2,67.1,30.15,East,86,0.0,7.0,90,0.00,,---,0.00,0.00,VWS V14.00,2013-01-29 23:00:00,
2013-01-29 18:30:00,70.2,67.1,30.15,East,86,0.0,6.0,90,0.00,,---,0.00,0.00,VWS V14.00,2013-01-29 23:30:00,
2013-01-29 19:00:00,70.2,67.1,30.15,East,92,0.0,6.0,90,0.00,,---,0.00,0.00,VWS V14.00,2013-01-30 00:00:00,
2013-01-29 19:30:00,70.1,67.0,30.15,East,92,0.0,4.0,90,0.00,,---,0.00,0.00,VWS V14.00,2013-01-30 00:30:00,
2013-01-29 20:00:00,69.8,66.7,30.16,East,92,0.0,1.0,90,0.00,,---,0.00,0.00,VWS V14.00,2013-01-30 01:00:00,
2013-01-29 20:30:00,69.4,66.0,30.16,East,92,0.0,2.0,89,0.00,,---,0.00,0.00,VWS V14.00,2013-01-30 01:30:00,
2013-01-29 21:00:00,68.7,65.7,30.15,East,92,0.0,0.0,90,0.00,,---,0.00,0.00,VWS V14.00,2013-01-30 02:00:00,
2013-01-29 21:30:00,68.3,65.6,30.14,East,92,2.0,2.0,91,0.00,,---,0.00,0.00,VWS V14.00,2013-01-30 02:30:00,
2013-01-29 22:00:00,67.9,65.2,30.14,East,92,0.0,2.0,91,0.00,,---,0.00,0.00,VWS V14.00,2013-01-30 03:00:00,
2013-01-29 22:30:00,67.3,64.3,30.14,East,92,0.0,0.0,90,0.00,,---,0.00,0.00,VWS V14.00,2013-01-30 03:30:00,
2013-01-29 23:00:00,66.6,63.9,30.13,East,92,0.0,0.0,91,0.00,,---,0.00,0.00,VWS V14.00,2013-01-30 04:00:00,
2013-01-29 23:30:00,65.9,63.2,30.13,East,92,0.0,0.0,91,0.00,,---,0.00,0.00,VWS V14.00,2013-01-30 04:30:00,